Time;durP1;ratioP1;P1;durP2;ratioP2;P2;SDS_P1;SDS_P2;PMS_P1;PMS_P2;Temp;Humidity;BMP_temperature;BMP_pressure;BME280_temperature;BME280_humidity;BME280_pressure;Samples;Min_cycle;Max_cycle;Signal;HPM_P1;HPM_P2
2022/06/19 00:00:11;;;;;;;29.05;6.20;;;13.80;99.90;;;;;;4993820;28;20482;-66
2022/06/19 00:02:39;;;;;;;37.03;8.05;;;13.80;99.90;;;;;;4994195;28;20037;-66
2022/06/19 00:05:05;;;;;;;31.67;6.55;;;13.80;99.90;;;;;;4993979;28;20430;-66
2022/06/19 00:07:32;;;;;;;27.98;6.90;;;13.80;99.90;;;;;;4993760;28;20026;-66
2022/06/19 00:09:57;;;;;;;33.22;6.93;;;13.90;99.90;;;;;;4993840;28;20037;-66
2022/06/19 00:12:23;;;;;;;26.95;6.72;;;13.90;99.90;;;;;;4993694;28;20038;-66
2022/06/19 00:14:49;;;;;;;32.67;6.13;;;13.80;99.90;;;;;;4993932;28;20030;-66
2022/06/19 00:17:15;;;;;;;47.53;7.93;;;13.80;99.90;;;;;;4993623;28;20421;-66
2022/06/19 00:19:41;;;;;;;35.85;7.97;;;13.90;99.90;;;;;;4993507;28;20502;-66
2022/06/19 00:22:07;;;;;;;39.72;6.25;;;13.90;99.90;;;;;;4993662;28;20042;-66
2022/06/19 00:24:32;;;;;;;35.08;7.95;;;13.90;99.90;;;;;;4994085;28;20038;-67
2022/06/19 00:26:58;;;;;;;40.08;6.45;;;13.90;99.90;;;;;;4997067;28;20041;-67
2022/06/19 00:29:26;;;;;;;32.92;6.15;;;13.90;99.90;;;;;;4997287;28;20026;-67
2022/06/19 00:31:51;;;;;;;59.50;18.50;;;13.90;99.90;;;;;;4997409;28;20478;-67
2022/06/19 00:34:17;;;;;;;34.78;10.55;;;13.90;99.90;;;;;;4997343;28;20036;-66
2022/06/19 00:36:45;;;;;;;31.33;8.40;;;13.90;99.90;;;;;;5052588;22;20037;-71
2022/06/19 00:39:10;;;;;;;29.90;6.75;;;13.90;99.90;;;;;;5056676;28;20067;-71
2022/06/19 00:41:39;;;;;;;38.35;7.90;;;13.90;99.90;;;;;;5056459;28;20435;-71
2022/06/19 00:44:08;;;;;;;29.42;5.97;;;13.90;99.90;;;;;;5056555;28;20032;-71
2022/06/19 00:46:40;;;;;;;29.33;6.32;;;13.90;99.90;;;;;;5061049;28;20029;-71
2022/06/19 00:49:10;;;;;;;39.22;6.93;;;13.90;99.90;;;;;;5076569;28;20074;-71
2022/06/19 00:51:36;;;;;;;33.03;7.25;;;14.00;99.90;;;;;;5076342;28;20020;-71
2022/06/19 00:54:02;;;;;;;42.65;6.65;;;14.00;99.90;;;;;;5076176;28;20046;-71
2022/06/19 00:56:28;;;;;;;29.70;5.75;;;14.00;99.90;;;;;;5076502;28;20051;-71
2022/06/19 00:58:54;;;;;;;25.08;6.90;;;14.00;99.90;;;;;;5076233;28;20048;-71
2022/06/19 01:01:23;;;;;;;27.33;6.50;;;14.00;99.90;;;;;;5076137;28;20021;-71
2022/06/19 01:04:14;;;;;;;37.25;5.78;;;14.00;99.90;;;;;;5076156;28;20028;-71
2022/06/19 01:06:39;;;;;;;29.63;5.25;;;14.10;99.90;;;;;;5076124;28;20028;-71
2022/06/19 01:09:05;;;;;;;29.98;6.38;;;14.10;99.90;;;;;;5075912;28;20025;-72
2022/06/19 01:11:35;;;;;;;20.33;5.07;;;14.00;99.90;;;;;;5076055;28;20063;-71
2022/06/19 01:14:02;;;;;;;29.45;5.28;;;14.00;99.90;;;;;;5076033;28;20032;-71
2022/06/19 01:16:29;;;;;;;25.67;4.30;;;14.00;99.90;;;;;;5074502;28;20028;-71
2022/06/19 01:18:55;;;;;;;33.63;7.97;;;13.90;99.90;;;;;;5075798;28;20051;-71
2022/06/19 01:21:48;;;;;;;21.08;4.75;;;14.00;99.90;;;;;;5076169;28;20052;-71
2022/06/19 01:24:32;;;;;;;32.05;6.28;;;14.00;99.90;;;;;;5076107;28;20021;-72
2022/06/19 01:27:00;;;;;;;35.13;6.28;;;13.80;99.90;;;;;;5076756;28;20052;-71
2022/06/19 01:29:32;;;;;;;26.33;5.32;;;13.80;99.90;;;;;;5075827;28;20082;-71
2022/06/19 01:32:01;;;;;;;28.90;5.38;;;13.90;99.90;;;;;;5075528;28;20035;-71
2022/06/19 01:34:36;;;;;;;36.20;6.20;;;13.90;99.90;;;;;;5075610;28;20029;-71
2022/06/19 01:37:07;;;;;;;25.90;5.47;;;13.90;99.90;;;;;;5074860;28;20040;-71
2022/06/19 01:39:51;;;;;;;32.10;5.80;;;13.90;99.90;;;;;;5075472;28;20024;-71
2022/06/19 01:42:17;;;;;;;30.05;5.78;;;13.90;99.90;;;;;;5075829;28;20194;-71
2022/06/19 01:44:44;;;;;;;24.20;6.75;;;13.90;99.90;;;;;;5075403;28;20024;-71
2022/06/19 01:47:11;;;;;;;37.38;6.95;;;13.90;99.90;;;;;;5075214;28;20033;-71
2022/06/19 01:49:41;;;;;;;39.35;6.25;;;14.00;99.90;;;;;;5075158;28;20032;-71
2022/06/19 01:52:07;;;;;;;32.58;7.07;;;14.00;99.90;;;;;;5075363;28;20025;-71
2022/06/19 01:54:39;;;;;;;26.77;5.80;;;13.90;99.90;;;;;;5075162;28;20031;-71
2022/06/19 01:57:07;;;;;;;33.40;5.75;;;14.00;99.90;;;;;;5074997;28;20052;-71
2022/06/19 01:59:34;;;;;;;28.50;5.20;;;13.90;99.90;;;;;;5075254;28;20016;-71
2022/06/19 02:02:04;;;;;;;20.02;5.03;;;13.90;99.90;;;;;;5075388;28;20034;-71
2022/06/19 02:04:31;;;;;;;25.08;6.05;;;13.80;99.90;;;;;;5075022;28;20476;-72
2022/06/19 02:07:01;;;;;;;30.63;5.40;;;13.80;99.90;;;;;;5074812;28;20037;-71
2022/06/19 02:09:27;;;;;;;26.25;5.70;;;13.80;99.90;;;;;;5075099;28;20372;-71
2022/06/19 02:11:54;;;;;;;31.92;5.55;;;13.80;99.90;;;;;;5074674;28;20025;-71
2022/06/19 02:14:21;;;;;;;24.33;5.43;;;13.90;99.90;;;;;;5074703;28;20052;-71
2022/06/19 02:16:48;;;;;;;31.27;5.60;;;13.90;99.90;;;;;;5074276;28;20146;-71
2022/06/19 02:19:15;;;;;;;22.38;5.07;;;13.90;99.90;;;;;;5074579;28;20029;-72
2022/06/19 02:21:44;;;;;;;23.30;5.15;;;13.90;99.90;;;;;;5074863;28;20024;-71
2022/06/19 02:24:14;;;;;;;27.98;4.70;;;13.90;99.90;;;;;;5074614;28;20017;-71
2022/06/19 02:26:41;;;;;;;38.22;6.10;;;13.90;99.90;;;;;;5074307;28;20480;-71
2022/06/19 02:29:11;;;;;;;25.77;5.68;;;13.80;99.90;;;;;;5074447;28;20032;-71
2022/06/19 02:31:40;;;;;;;37.85;5.80;;;13.80;99.90;;;;;;5074430;28;20047;-71
2022/06/19 02:34:27;;;;;;;34.03;5.97;;;13.80;99.90;;;;;;5074422;28;20027;-71
2022/06/19 02:36:58;;;;;;;41.55;6.53;;;13.80;99.90;;;;;;5074533;28;20024;-71
2022/06/19 02:39:27;;;;;;;43.35;6.22;;;13.50;99.90;;;;;;5074376;28;20476;-71
2022/06/19 02:42:26;;;;;;;41.53;6.57;;;13.40;99.90;;;;;;5074316;28;20074;-71
2022/06/19 02:44:57;;;;;;;36.28;6.70;;;13.40;99.90;;;;;;5074439;28;20400;-71
2022/06/19 02:47:25;;;;;;;28.30;5.55;;;13.40;99.90;;;;;;5072841;28;20029;-72
2022/06/19 02:49:50;;;;;;;41.05;5.88;;;13.30;99.90;;;;;;5073871;28;20044;-71
2022/06/19 02:52:16;;;;;;;30.50;5.05;;;13.40;99.90;;;;;;5073902;28;20078;-71
2022/06/19 02:54:42;;;;;;;37.58;5.45;;;13.30;99.90;;;;;;5073999;28;20056;-71
2022/06/19 02:57:11;;;;;;;36.45;4.03;;;13.40;99.90;;;;;;5074127;28;20028;-71
2022/06/19 02:59:36;;;;;;;23.40;4.15;;;13.10;99.90;;;;;;5074103;28;20016;-71
2022/06/19 03:02:02;;;;;;;20.95;3.55;;;12.90;99.90;;;;;;5074365;28;20098;-71
2022/06/19 03:04:36;;;;;;;18.05;4.15;;;12.70;99.90;;;;;;5074236;28;20024;-71
2022/06/19 03:07:02;;;;;;;17.08;3.17;;;12.30;99.90;;;;;;5074001;28;20020;-71
2022/06/19 03:09:28;;;;;;;21.20;3.22;;;12.00;99.90;;;;;;5073891;28;20086;-71
2022/06/19 03:11:53;;;;;;;15.18;3.33;;;11.90;99.90;;;;;;5073723;28;20032;-71
2022/06/19 03:14:19;;;;;;;18.15;3.70;;;11.80;99.90;;;;;;5073665;28;20052;-71
2022/06/19 03:16:45;;;;;;;25.38;3.72;;;11.70;99.90;;;;;;5073670;28;20036;-71
2022/06/19 03:19:11;;;;;;;15.07;3.45;;;11.50;99.90;;;;;;5074048;28;20021;-71
2022/06/19 03:21:37;;;;;;;20.42;3.88;;;11.50;99.90;;;;;;5073902;28;20032;-71
2022/06/19 03:24:03;;;;;;;23.90;3.30;;;11.50;99.90;;;;;;5073668;28;20028;-71
2022/06/19 03:26:30;;;;;;;20.13;3.28;;;11.50;99.90;;;;;;5073600;28;20021;-71
2022/06/19 03:28:56;;;;;;;16.60;2.78;;;11.50;99.90;;;;;;5073742;28;20013;-71
2022/06/19 03:31:24;;;;;;;21.60;4.43;;;11.50;99.90;;;;;;5073940;28;20024;-71
2022/06/19 03:33:50;;;;;;;19.73;3.30;;;11.40;99.90;;;;;;5073834;28;20035;-71
2022/06/19 03:36:16;;;;;;;10.52;2.63;;;11.50;99.90;;;;;;5073708;28;20029;-71
2022/06/19 03:38:41;;;;;;;14.68;2.85;;;11.40;99.90;;;;;;5073564;28;20021;-71
2022/06/19 03:41:07;;;;;;;12.27;3.00;;;11.40;99.90;;;;;;5073651;28;20063;-71
2022/06/19 03:43:34;;;;;;;11.20;2.15;;;11.40;99.90;;;;;;5073670;28;20103;-71
2022/06/19 03:46:01;;;;;;;12.32;2.55;;;11.40;99.90;;;;;;5073856;28;20074;-71
2022/06/19 03:48:26;;;;;;;24.50;3.47;;;11.40;99.90;;;;;;5074637;28;20154;-71
2022/06/19 03:50:52;;;;;;;23.45;4.25;;;11.50;99.90;;;;;;5074425;28;20082;-71
2022/06/19 03:53:18;;;;;;;11.57;2.88;;;11.50;99.90;;;;;;5073511;28;20032;-71
2022/06/19 03:55:44;;;;;;;19.23;4.10;;;11.50;99.90;;;;;;5072267;28;20435;-71
2022/06/19 03:58:10;;;;;;;12.05;3.00;;;11.50;99.90;;;;;;5073732;28;20024;-71
2022/06/19 04:00:36;;;;;;;9.48;2.85;;;11.50;99.90;;;;;;5075613;28;20017;-71
2022/06/19 04:03:01;;;;;;;10.52;2.90;;;11.40;99.90;;;;;;5077696;28;20025;-71
2022/06/19 04:05:27;;;;;;;21.52;3.70;;;11.40;99.90;;;;;;5077754;28;20107;-71
2022/06/19 04:07:53;;;;;;;17.05;2.75;;;11.40;99.90;;;;;;5077395;28;20430;-72
2022/06/19 04:10:20;;;;;;;17.65;3.22;;;11.30;99.90;;;;;;5077316;28;20024;-72
2022/06/19 04:12:46;;;;;;;13.85;2.63;;;11.20;99.90;;;;;;5077518;28;20119;-72
2022/06/19 04:15:12;;;;;;;17.75;3.10;;;11.20;99.90;;;;;;5077269;28;20059;-71
2022/06/19 04:17:39;;;;;;;19.17;3.58;;;11.20;99.90;;;;;;5069642;28;20411;-72
2022/06/19 04:20:07;;;;;;;14.25;2.92;;;11.20;99.90;;;;;;5076502;28;20088;-72
2022/06/19 04:22:33;;;;;;;10.65;2.88;;;11.20;99.90;;;;;;5077192;28;20029;-72
2022/06/19 04:24:59;;;;;;;12.60;2.90;;;11.10;99.90;;;;;;5076996;28;20395;-72
2022/06/19 04:27:25;;;;;;;12.50;2.67;;;11.10;99.90;;;;;;5077100;28;20024;-72
2022/06/19 04:29:51;;;;;;;10.80;2.50;;;11.10;99.90;;;;;;5077119;28;20029;-72
2022/06/19 04:32:16;;;;;;;20.38;3.42;;;11.10;99.90;;;;;;5076876;28;20551;-72
2022/06/19 04:34:42;;;;;;;12.90;3.08;;;11.10;99.90;;;;;;5076940;28;20025;-72
2022/06/19 04:37:07;;;;;;;13.40;2.75;;;11.00;99.90;;;;;;5076651;28;20376;-72
2022/06/19 04:39:33;;;;;;;11.60;2.92;;;11.00;99.90;;;;;;5076864;28;20021;-72
2022/06/19 04:41:59;;;;;;;15.63;3.25;;;11.00;99.90;;;;;;5076698;28;20021;-72
2022/06/19 04:44:24;;;;;;;12.93;3.45;;;11.00;99.90;;;;;;5076654;28;20019;-72
2022/06/19 04:46:50;;;;;;;14.07;3.33;;;11.10;99.90;;;;;;5076688;28;20020;-72
2022/06/19 04:49:16;;;;;;;11.43;3.00;;;11.00;99.90;;;;;;5076981;28;20027;-72
2022/06/19 04:51:42;;;;;;;17.85;3.28;;;10.90;99.90;;;;;;5076709;28;20020;-72
2022/06/19 04:54:08;;;;;;;13.95;2.83;;;11.00;99.90;;;;;;5076892;28;20021;-72
2022/06/19 04:56:34;;;;;;;9.35;2.38;;;11.00;99.90;;;;;;5076551;28;20021;-72
2022/06/19 04:59:00;;;;;;;10.18;2.58;;;11.00;99.90;;;;;;5076732;28;20104;-72
2022/06/19 05:01:27;;;;;;;17.05;3.80;;;11.00;99.90;;;;;;5076614;28;20075;-72
2022/06/19 05:03:55;;;;;;;19.33;3.60;;;11.00;99.90;;;;;;5076426;28;20104;-72
2022/06/19 05:06:22;;;;;;;11.50;2.63;;;11.10;99.90;;;;;;5076359;28;20024;-72
2022/06/19 05:08:47;;;;;;;9.48;2.70;;;11.10;99.90;;;;;;5076236;28;20024;-72
2022/06/19 05:11:13;;;;;;;14.93;3.65;;;11.10;99.90;;;;;;5075475;28;20519;-72
2022/06/19 05:13:41;;;;;;;16.33;3.15;;;11.10;99.90;;;;;;5076203;28;20020;-72
2022/06/19 05:16:10;;;;;;;10.95;3.05;;;11.00;99.90;;;;;;5076088;28;20025;-72
2022/06/19 05:18:36;;;;;;;7.70;2.88;;;11.00;99.90;;;;;;5076415;28;20020;-72
2022/06/19 05:21:04;;;;;;;10.10;3.67;;;11.10;99.90;;;;;;5076719;28;20108;-72
2022/06/19 05:23:30;;;;;;;11.15;2.95;;;11.10;99.90;;;;;;5075979;28;20507;-72
2022/06/19 05:26:07;;;;;;;12.68;2.65;;;11.10;99.90;;;;;;5076115;28;20091;-72
2022/06/19 05:28:33;;;;;;;16.33;3.15;;;11.20;99.90;;;;;;5076323;28;20078;-72
2022/06/19 05:30:59;;;;;;;6.88;2.55;;;11.20;99.90;;;;;;5076558;28;20024;-72
2022/06/19 05:33:26;;;;;;;12.90;3.03;;;11.20;99.90;;;;;;5075770;28;20384;-72
2022/06/19 05:35:53;;;;;;;9.38;2.92;;;11.30;99.90;;;;;;5075843;28;20031;-72
2022/06/19 05:38:18;;;;;;;10.98;2.25;;;11.30;99.90;;;;;;5075590;28;20064;-72
2022/06/19 05:40:44;;;;;;;18.65;3.17;;;11.20;99.90;;;;;;5075888;28;20035;-72
2022/06/19 05:43:09;;;;;;;18.75;3.33;;;11.10;99.90;;;;;;5075657;28;20031;-72
2022/06/19 05:45:35;;;;;;;9.77;2.83;;;11.20;99.90;;;;;;5075587;28;20040;-72
2022/06/19 05:48:01;;;;;;;12.98;3.17;;;11.10;99.90;;;;;;5075574;28;20031;-72
2022/06/19 05:50:27;;;;;;;8.90;2.75;;;11.10;99.90;;;;;;5075784;28;20036;-72
2022/06/19 05:52:52;;;;;;;10.13;2.95;;;11.20;99.90;;;;;;5075485;28;20025;-72
2022/06/19 05:55:18;;;;;;;11.15;3.53;;;11.40;99.90;;;;;;5075400;28;20020;-72
2022/06/19 05:57:43;;;;;;;14.98;3.58;;;11.40;99.90;;;;;;5075271;28;20032;-72
2022/06/19 06:00:10;;;;;;;15.52;3.70;;;11.40;99.90;;;;;;5075504;28;20025;-72
2022/06/19 06:02:36;;;;;;;14.57;3.85;;;11.50;99.90;;;;;;5074466;28;20024;-72
2022/06/19 06:05:03;;;;;;;13.40;4.03;;;11.50;99.90;;;;;;5075629;28;20086;-72
2022/06/19 06:07:28;;;;;;;15.15;4.38;;;11.50;99.90;;;;;;5075165;28;20369;-72
2022/06/19 06:09:54;;;;;;;14.45;3.33;;;11.50;99.90;;;;;;5075955;28;20062;-72
2022/06/19 06:12:19;;;;;;;9.38;2.47;;;11.60;99.90;;;;;;5076180;28;20051;-73
2022/06/19 06:14:45;;;;;;;12.68;2.72;;;11.50;99.90;;;;;;5075380;28;20425;-73
2022/06/19 06:17:11;;;;;;;13.88;3.33;;;11.50;99.90;;;;;;5075104;28;20384;-73
2022/06/19 06:19:37;;;;;;;12.82;3.33;;;11.50;99.90;;;;;;5075019;28;20201;-72
2022/06/19 06:22:04;;;;;;;14.10;3.78;;;11.50;99.90;;;;;;5075043;28;20100;-72
2022/06/19 06:24:30;;;;;;;16.75;2.80;;;11.60;99.90;;;;;;5075125;28;20024;-73
2022/06/19 06:26:58;;;;;;;11.38;2.72;;;11.60;99.90;;;;;;5075100;28;20021;-73
2022/06/19 06:29:25;;;;;;;10.70;2.47;;;11.80;99.90;;;;;;5075111;28;20028;-72
2022/06/19 06:31:51;;;;;;;5.13;2.22;;;11.90;99.90;;;;;;5074868;28;20492;-72
2022/06/19 06:34:16;;;;;;;8.73;2.58;;;12.00;99.90;;;;;;5074647;28;20028;-73
2022/06/19 06:36:43;;;;;;;11.63;2.38;;;12.00;99.90;;;;;;5075191;28;20040;-70
2022/06/19 06:39:08;;;;;;;6.53;2.45;;;12.00;99.90;;;;;;5074479;28;20468;-70
2022/06/19 06:41:34;;;;;;;10.50;2.35;;;12.10;99.90;;;;;;5074698;28;20036;-69
2022/06/19 06:44:00;;;;;;;11.52;2.58;;;12.20;99.90;;;;;;5074685;28;20024;-70
2022/06/19 06:46:27;;;;;;;11.63;3.05;;;12.20;99.90;;;;;;5075008;28;20029;-69
2022/06/19 06:48:56;;;;;;;18.58;4.15;;;12.10;99.90;;;;;;5074222;28;20024;-70
2022/06/19 06:51:25;;;;;;;14.70;3.13;;;12.10;99.90;;;;;;5074261;28;20032;-70
2022/06/19 06:53:52;;;;;;;10.95;2.50;;;12.00;99.90;;;;;;5074228;28;20036;-69
2022/06/19 06:56:18;;;;;;;11.23;3.22;;;12.10;99.90;;;;;;5074112;28;20025;-70
2022/06/19 06:58:43;;;;;;;17.95;3.53;;;12.30;99.90;;;;;;5074119;28;20028;-70
2022/06/19 07:01:14;;;;;;;14.00;2.63;;;12.50;99.90;;;;;;5074064;28;20025;-70
2022/06/19 07:03:44;;;;;;;5.88;2.38;;;12.50;99.90;;;;;;5074342;28;20546;-70
2022/06/19 07:06:10;;;;;;;12.85;3.20;;;12.80;99.90;;;;;;5073864;28;20032;-70
2022/06/19 07:08:37;;;;;;;12.77;3.13;;;12.80;99.90;;;;;;5072722;28;20388;-70
2022/06/19 07:11:03;;;;;;;11.75;2.80;;;13.00;99.90;;;;;;5074012;28;20361;-70
2022/06/19 07:13:28;;;;;;;9.48;2.42;;;13.20;99.90;;;;;;5072692;28;20070;-69
2022/06/19 07:15:54;;;;;;;5.75;2.65;;;13.30;99.90;;;;;;5073856;28;20099;-69
2022/06/19 07:18:20;;;;;;;9.38;2.47;;;13.30;99.90;;;;;;5073775;28;20029;-69
2022/06/19 07:20:46;;;;;;;13.00;2.53;;;13.50;99.90;;;;;;5073826;28;20028;-69
2022/06/19 07:23:12;;;;;;;10.57;3.40;;;13.60;99.90;;;;;;5074067;28;20464;-69
2022/06/19 07:25:38;;;;;;;8.77;3.17;;;13.60;99.90;;;;;;5073738;28;20032;-70
2022/06/19 07:28:04;;;;;;;16.15;3.05;;;13.90;99.90;;;;;;5073770;28;20028;-70
2022/06/19 07:30:30;;;;;;;6.82;2.60;;;14.00;99.90;;;;;;5074037;28;20082;-69
2022/06/19 07:32:56;;;;;;;19.92;2.80;;;14.00;99.90;;;;;;5073567;28;20024;-69
2022/06/19 07:35:23;;;;;;;8.00;2.58;;;14.20;99.90;;;;;;5073171;28;20358;-70
2022/06/19 07:37:51;;;;;;;7.00;2.83;;;14.30;99.90;;;;;;5073397;28;20032;-70
2022/06/19 07:40:19;;;;;;;11.95;2.75;;;14.40;99.90;;;;;;5073848;28;20021;-70
2022/06/19 07:42:45;;;;;;;9.05;2.60;;;14.50;99.90;;;;;;5073692;28;20029;-70
2022/06/19 07:45:12;;;;;;;7.07;2.83;;;14.60;99.90;;;;;;5073833;28;20090;-70
2022/06/19 07:50:22;;;;;;;7.13;2.78;;;14.80;99.90;;;;;;5073827;28;20392;-69
2022/06/19 07:52:49;;;;;;;11.10;2.58;;;14.80;99.90;;;;;;5073736;28;20055;-70
2022/06/19 07:55:19;;;;;;;11.85;2.95;;;14.80;99.90;;;;;;5073289;28;20031;-72
2022/06/19 07:57:45;;;;;;;5.57;1.92;;;14.90;99.90;;;;;;5073469;28;20028;-69
2022/06/19 08:00:18;;;;;;;12.70;2.42;;;14.80;99.90;;;;;;5073332;28;20019;-69
2022/06/19 08:02:50;;;;;;;7.30;2.40;;;14.80;99.90;;;;;;5073615;28;20021;-69
2022/06/19 08:05:17;;;;;;;8.88;2.28;;;14.80;99.90;;;;;;5073574;28;20029;-69
2022/06/19 08:07:43;;;;;;;8.20;2.38;;;14.90;99.90;;;;;;5071814;28;20028;-69
2022/06/19 08:10:14;;;;;;;13.32;2.95;;;14.70;99.90;;;;;;5073279;28;20024;-69
2022/06/19 08:12:39;;;;;;;13.50;2.83;;;14.60;99.90;;;;;;5073205;28;20480;-69
2022/06/19 08:15:07;;;;;;;10.05;2.55;;;14.40;99.90;;;;;;5073242;28;20024;-69
2022/06/19 08:17:33;;;;;;;15.27;2.88;;;14.20;99.90;;;;;;5073245;28;20031;-69
2022/06/19 08:19:59;;;;;;;7.03;2.85;;;14.00;99.90;;;;;;5073361;28;20029;-69
2022/06/19 08:22:25;;;;;;;8.02;2.90;;;13.90;99.90;;;;;;5073493;28;20097;-68
2022/06/19 08:24:50;;;;;;;8.48;2.60;;;13.80;99.90;;;;;;5073426;28;20024;-68
2022/06/19 08:27:16;;;;;;;11.38;3.13;;;13.70;99.90;;;;;;5073104;28;20079;-69
2022/06/19 08:29:41;;;;;;;7.80;2.78;;;13.60;99.90;;;;;;5073060;28;20067;-69
2022/06/19 08:32:07;;;;;;;9.55;2.92;;;13.50;99.90;;;;;;5074329;28;20036;-69
2022/06/19 08:34:33;;;;;;;5.93;2.58;;;13.40;99.90;;;;;;5074033;28;20484;-69
2022/06/19 08:37:01;;;;;;;10.48;3.00;;;13.40;99.90;;;;;;5073091;28;20507;-68
2022/06/19 08:39:28;;;;;;;11.00;3.15;;;13.30;99.90;;;;;;5073280;28;20075;-69
2022/06/19 08:42:06;;;;;;;13.05;2.90;;;13.20;99.90;;;;;;5073296;28;20032;-68
2022/06/19 08:44:47;;;;;;;14.98;3.17;;;13.00;99.90;;;;;;5073537;28;20460;-68
2022/06/19 08:47:12;;;;;;;11.07;2.60;;;13.00;99.90;;;;;;5074464;28;20024;-68
2022/06/19 08:50:07;;;;;;;13.85;3.25;;;12.80;99.90;;;;;;5076548;28;20365;-68
2022/06/19 08:52:55;;;;;;;11.48;2.90;;;12.60;99.90;;;;;;5076718;28;20020;-68
2022/06/19 08:55:44;;;;;;;13.65;3.30;;;12.60;99.90;;;;;;5075528;28;20029;-69
2022/06/19 08:58:30;;;;;;;14.52;3.08;;;12.50;99.90;;;;;;5076297;28;20041;-69
2022/06/19 09:01:18;;;;;;;17.75;3.65;;;12.50;99.90;;;;;;5076252;28;20020;-69
2022/06/19 09:06:51;;;;;;;29.30;13.85;;;12.40;99.90;;;;;;5076274;28;20055;-68
2022/06/19 09:09:29;;;;;;;14.23;6.13;;;12.40;99.90;;;;;;5076373;28;20035;-68
2022/06/19 09:12:00;;;;;;;15.85;4.22;;;12.30;99.90;;;;;;5076046;28;20028;-68
2022/06/19 09:14:47;;;;;;;15.45;5.68;;;12.40;99.90;;;;;;5076234;28;20482;-68
2022/06/19 09:17:25;;;;;;;14.07;5.38;;;12.40;99.90;;;;;;5075904;28;20366;-68
2022/06/19 09:20:22;;;;;;;17.65;5.55;;;12.40;99.90;;;;;;5076301;28;20020;-68
2022/06/19 09:22:57;;;;;;;43.83;27.23;;;12.50;99.90;;;;;;5075939;28;20036;-68
2022/06/19 09:25:44;;;;;;;43.70;27.15;;;12.40;99.90;;;;;;5076090;28;20411;-68
2022/06/19 09:28:41;;;;;;;36.33;23.30;;;12.30;99.90;;;;;;5075767;28;20025;-69
2022/06/19 09:31:10;;;;;;;71.40;43.83;;;12.30;99.90;;;;;;5050976;28;20044;-68
2022/06/19 09:33:50;;;;;;;64.32;33.50;;;12.40;99.90;;;;;;5075612;28;20056;-69
2022/06/19 09:36:24;;;;;;;38.70;20.92;;;12.40;99.90;;;;;;5076003;28;20035;-69
2022/06/19 09:39:02;;;;;;;36.45;18.33;;;12.40;99.90;;;;;;5074453;28;20024;-68
2022/06/19 09:41:51;;;;;;;30.92;12.70;;;12.40;99.90;;;;;;5075630;28;20108;-69
2022/06/19 09:44:32;;;;;;;17.40;6.85;;;12.50;99.90;;;;;;5067227;28;20033;-68
2022/06/19 09:47:10;;;;;;;18.25;6.47;;;12.50;99.90;;;;;;5075352;28;20025;-68
2022/06/19 09:49:56;;;;;;;14.82;3.67;;;12.50;99.90;;;;;;5075674;28;20032;-68
2022/06/19 09:52:32;;;;;;;15.82;4.38;;;12.50;99.90;;;;;;5075537;28;20037;-68
2022/06/19 09:55:17;;;;;;;10.63;3.40;;;12.60;99.90;;;;;;5075408;28;20025;-68
2022/06/19 09:58:27;;;;;;;14.50;3.40;;;12.50;99.90;;;;;;5074835;28;20017;-68
2022/06/19 10:00:56;;;;;;;15.07;3.47;;;12.50;99.90;;;;;;5075407;28;20024;-68
2022/06/19 10:03:39;;;;;;;8.70;2.13;;;12.50;99.90;;;;;;5075349;28;20471;-68
2022/06/19 10:06:42;;;;;;;11.73;2.78;;;12.50;99.90;;;;;;5075255;28;20032;-70
2022/06/19 10:09:34;;;;;;;18.45;3.28;;;12.50;99.90;;;;;;5075267;28;20040;-68
2022/06/19 10:12:02;;;;;;;12.40;2.85;;;12.50;99.90;;;;;;5090469;28;20025;-68
2022/06/19 10:14:37;;;;;;;17.98;3.75;;;12.50;99.90;;;;;;5074863;28;20035;-68
2022/06/19 10:17:27;;;;;;;14.50;3.58;;;12.60;99.90;;;;;;5073459;28;20392;-69
2022/06/19 10:20:12;;;;;;;21.95;3.55;;;12.70;99.90;;;;;;5074947;28;20029;-69
2022/06/19 10:22:41;;;;;;;12.25;3.15;;;12.80;99.90;;;;;;5074786;28;20059;-69
2022/06/19 10:25:22;;;;;;;9.27;3.47;;;13.00;99.90;;;;;;5074648;28;20027;-68
2022/06/19 10:28:02;;;;;;;13.07;2.85;;;13.10;99.90;;;;;;5074860;28;20039;-69
2022/06/19 10:30:46;;;;;;;14.05;3.00;;;13.30;99.90;;;;;;5074662;28;20024;-69
2022/06/19 10:33:11;;;;;;;;;;;13.50;99.90;;;;;;5075277;28;20495;-69
2022/06/19 10:35:44;;;;;;;13.43;3.03;;;13.70;99.90;;;;;;5074618;28;19908;-69
2022/06/19 10:38:27;;;;;;;16.88;3.08;;;14.00;99.90;;;;;;5074297;28;20094;-69
2022/06/19 10:41:03;;;;;;;13.85;2.50;;;14.20;99.90;;;;;;5074367;28;20048;-70
2022/06/19 10:44:18;;;;;;;8.18;2.55;;;14.50;99.90;;;;;;5074439;28;20032;-70
2022/06/19 10:46:49;;;;;;;7.07;2.50;;;14.80;99.90;;;;;;5013066;28;20029;-69
2022/06/19 10:49:22;;;;;;;13.68;3.17;;;15.30;99.90;;;;;;5012837;28;20104;-70
2022/06/19 10:52:31;;;;;;;10.88;2.33;;;15.60;99.90;;;;;;5051708;28;20040;-70
2022/06/19 10:55:12;;;;;;;16.10;3.17;;;16.00;99.90;;;;;;5013902;28;20037;-70
2022/06/19 10:58:15;;;;;;;11.32;3.22;;;16.30;99.90;;;;;;5072007;28;20033;-71
2022/06/19 11:00:41;;;;;;;10.55;2.08;;;16.60;99.90;;;;;;5057370;28;20096;-69
2022/06/19 11:06:14;;;;;;;6.30;2.20;;;16.50;99.90;;;;;;5054173;28;20033;-69
2022/06/19 11:08:45;;;;;;;8.65;2.35;;;16.30;99.90;;;;;;5053827;28;20452;-69
2022/06/19 11:11:16;;;;;;;13.35;2.10;;;16.40;99.90;;;;;;5053666;28;20499;-70
2022/06/19 11:13:59;;;;;;;9.90;2.05;;;16.50;99.90;;;;;;5054252;28;20465;-69
2022/06/19 11:16:26;;;;;;;5.90;1.98;;;16.60;99.90;;;;;;5052806;28;20453;-69
2022/06/19 11:18:54;;;;;;;6.10;2.30;;;16.50;99.90;;;;;;5053811;28;20064;-69
2022/06/19 11:21:24;;;;;;;5.80;1.98;;;16.40;99.90;;;;;;5073599;28;20469;-69
2022/06/19 11:23:54;;;;;;;7.35;1.52;;;16.20;99.90;;;;;;5073896;28;20056;-69
2022/06/19 11:26:25;;;;;;;12.30;2.08;;;16.20;99.90;;;;;;5074020;28;20029;-69
2022/06/19 11:29:11;;;;;;;3.70;1.23;;;16.20;99.90;;;;;;5073790;28;20056;-69
2022/06/19 11:31:40;;;;;;;6.35;2.05;;;16.20;99.90;;;;;;5074192;28;20028;-69
2022/06/19 11:37:21;;;;;;;6.50;1.55;;;16.20;99.90;;;;;;5073474;28;20083;-68
2022/06/19 11:40:16;;;;;;;8.18;2.65;;;16.40;99.90;;;;;;5073624;28;20021;-68
2022/06/19 11:42:58;;;;;;;9.93;1.90;;;16.40;99.90;;;;;;5072160;28;20033;-68
2022/06/19 11:45:31;;;;;;;5.78;1.65;;;16.40;99.90;;;;;;5073910;28;20104;-68
2022/06/19 11:47:56;;;;;;;10.18;2.60;;;16.40;99.90;;;;;;5073526;28;20036;-68
2022/06/19 11:50:29;;;;;;;7.35;1.45;;;16.50;99.90;;;;;;5073361;28;20036;-68
2022/06/19 11:53:10;;;;;;;6.65;1.80;;;16.70;99.90;;;;;;5073564;28;20035;-68
2022/06/19 11:55:49;;;;;;;7.22;1.80;;;17.00;99.90;;;;;;5073747;28;20024;-68
2022/06/19 11:58:42;;;;;;;11.90;2.20;;;16.90;99.90;;;;;;5072449;28;20353;-68
2022/06/19 12:01:17;;;;;;;7.00;1.83;;;16.80;99.90;;;;;;5073332;28;20040;-68
2022/06/19 12:04:00;;;;;;;6.13;1.67;;;16.90;99.90;;;;;;5073533;28;20027;-68
2022/06/19 12:06:48;;;;;;;6.90;1.75;;;16.70;99.90;;;;;;5073308;28;20069;-68
2022/06/19 12:09:22;;;;;;;8.00;2.15;;;16.80;99.90;;;;;;5073623;28;20031;-68
2022/06/19 12:12:11;;;;;;;4.18;1.48;;;16.70;99.90;;;;;;5073085;28;20036;-68
2022/06/19 12:15:18;;;;;;;7.72;1.90;;;16.50;99.90;;;;;;5073242;28;20097;-71
2022/06/19 12:17:45;;;;;;;9.45;2.33;;;16.50;99.90;;;;;;5065047;28;20032;-68
2022/06/19 12:20:10;;;;;;;4.07;1.38;;;16.60;99.90;;;;;;5073168;28;20530;-68
2022/06/19 12:22:42;;;;;;;3.17;1.50;;;16.70;99.90;;;;;;5077146;28;20036;-68
2022/06/19 12:25:15;;;;;;;5.28;2.15;;;16.50;99.90;;;;;;5076954;28;20067;-68
2022/06/19 12:27:45;;;;;;;;;;;16.70;99.90;;;;;;5077601;28;20489;-69
2022/06/19 12:30:20;;;;;;;5.57;1.17;;;16.80;99.90;;;;;;5076964;28;20288;-68
2022/06/19 12:32:48;;;;;;;2.42;1.38;;;16.80;99.90;;;;;;5077356;28;20075;-68
2022/06/19 12:35:32;;;;;;;4.65;1.35;;;16.80;99.90;;;;;;5076756;28;20383;-68
2022/06/19 12:37:58;;;;;;;;;;;16.80;99.90;;;;;;5078882;28;20126;-68
2022/06/19 12:40:39;;;;;;;7.10;1.27;;;16.70;99.90;;;;;;5076705;28;19908;-68
2022/06/19 12:43:16;;;;;;;4.57;1.98;;;16.60;99.90;;;;;;5076875;28;20035;-68
2022/06/19 12:45:54;;;;;;;6.15;1.73;;;16.30;99.90;;;;;;5076937;28;20028;-68
2022/06/19 12:48:55;;;;;;;6.95;1.75;;;16.10;99.90;;;;;;5076521;28;20572;-68
2022/06/19 12:51:27;;;;;;;6.65;1.70;;;16.00;99.90;;;;;;5057115;28;20029;-68
2022/06/19 12:54:01;;;;;;;7.40;1.75;;;16.00;99.90;;;;;;5056615;28;20025;-68
2022/06/19 12:56:54;;;;;;;2.67;1.30;;;16.10;99.90;;;;;;5058771;28;20040;-68
2022/06/19 12:59:26;;;;;;;4.85;1.60;;;16.00;99.90;;;;;;5076644;28;20114;-68
2022/06/19 13:02:06;;;;;;;5.63;2.13;;;16.20;99.90;;;;;;5076779;28;20028;-68
2022/06/19 13:04:57;;;;;;;4.85;1.63;;;16.40;99.90;;;;;;5076824;28;20031;-68
2022/06/19 13:07:32;;;;;;;3.00;1.52;;;16.50;99.90;;;;;;5076320;28;20111;-68
2022/06/19 13:10:06;;;;;;;6.00;1.65;;;16.70;99.90;;;;;;5076099;28;20432;-68
2022/06/19 13:12:52;;;;;;;4.15;1.42;;;16.60;99.90;;;;;;5075895;28;20025;-68